sensor_id;sensor_type;location;lat;lon;timestamp;P1;durP1;ratioP1;P2;durP2;ratioP2
38379;SDS011;38377;47.418;18.882;2022-08-30T00:01:10;7.65;;;6.95;;
38379;SDS011;38377;47.418;18.882;2022-08-30T00:03:38;7.10;;;6.05;;
38379;SDS011;38377;47.418;18.882;2022-08-30T00:06:12;8.07;;;6.93;;
38379;SDS011;38377;47.418;18.882;2022-08-30T00:08:40;7.30;;;6.47;;
38379;SDS011;38377;47.418;18.882;2022-08-30T00:11:07;6.95;;;5.97;;
38379;SDS011;38377;47.418;18.882;2022-08-30T00:13:36;7.30;;;6.60;;
38379;SDS011;38377;47.418;18.882;2022-08-30T00:16:04;7.22;;;6.40;;
38379;SDS011;38377;47.418;18.882;2022-08-30T00:18:31;7.30;;;6.30;;
38379;SDS011;38377;47.418;18.882;2022-08-30T00:20:57;8.48;;;6.70;;
38379;SDS011;38377;47.418;18.882;2022-08-30T00:23:23;6.28;;;5.45;;
38379;SDS011;38377;47.418;18.882;2022-08-30T00:25:49;7.38;;;6.68;;
38379;SDS011;38377;47.418;18.882;2022-08-30T00:28:15;7.95;;;7.20;;
38379;SDS011;38377;47.418;18.882;2022-08-30T00:30:41;7.32;;;6.60;;
38379;SDS011;38377;47.418;18.882;2022-08-30T00:33:08;7.93;;;6.80;;
38379;SDS011;38377;47.418;18.882;2022-08-30T00:35:34;7.78;;;6.25;;
38379;SDS011;38377;47.418;18.882;2022-08-30T00:38:02;7.78;;;6.30;;
38379;SDS011;38377;47.418;18.882;2022-08-30T00:40:28;8.77;;;7.45;;
38379;SDS011;38377;47.418;18.882;2022-08-30T00:42:57;8.55;;;6.72;;
38379;SDS011;38377;47.418;18.882;2022-08-30T00:45:30;7.20;;;6.45;;
38379;SDS011;38377;47.418;18.882;2022-08-30T00:47:59;7.43;;;6.78;;
38379;SDS011;38377;47.418;18.882;2022-08-30T00:50:30;8.90;;;6.43;;
38379;SDS011;38377;47.418;18.882;2022-08-30T00:53:00;8.05;;;7.25;;
38379;SDS011;38377;47.418;18.882;2022-08-30T00:55:29;7.70;;;6.90;;
38379;SDS011;38377;47.418;18.882;2022-08-30T00:57:57;7.55;;;6.82;;
38379;SDS011;38377;47.418;18.882;2022-08-30T01:00:26;8.38;;;7.25;;
38379;SDS011;38377;47.418;18.882;2022-08-30T01:02:52;10.38;;;8.25;;
38379;SDS011;38377;47.418;18.882;2022-08-30T01:05:18;8.55;;;7.70;;
38379;SDS011;38377;47.418;18.882;2022-08-30T01:07:45;9.63;;;7.30;;
38379;SDS011;38377;47.418;18.882;2022-08-30T01:10:11;7.95;;;7.25;;
38379;SDS011;38377;47.418;18.882;2022-08-30T01:12:39;8.65;;;7.78;;
38379;SDS011;38377;47.418;18.882;2022-08-30T01:15:07;7.78;;;6.97;;
38379;SDS011;38377;47.418;18.882;2022-08-30T01:17:34;8.68;;;7.55;;
38379;SDS011;38377;47.418;18.882;2022-08-30T01:20:02;8.32;;;7.53;;
38379;SDS011;38377;47.418;18.882;2022-08-30T01:25:09;9.07;;;8.00;;
38379;SDS011;38377;47.418;18.882;2022-08-30T01:27:36;11.73;;;8.10;;
38379;SDS011;38377;47.418;18.882;2022-08-30T01:30:07;9.90;;;8.25;;
38379;SDS011;38377;47.418;18.882;2022-08-30T01:32:38;8.38;;;7.57;;
38379;SDS011;38377;47.418;18.882;2022-08-30T01:35:07;9.75;;;8.23;;
38379;SDS011;38377;47.418;18.882;2022-08-30T01:37:34;11.52;;;8.15;;
38379;SDS011;38377;47.418;18.882;2022-08-30T01:40:02;8.88;;;7.90;;
38379;SDS011;38377;47.418;18.882;2022-08-30T01:42:28;9.45;;;8.07;;
38379;SDS011;38377;47.418;18.882;2022-08-30T01:44:54;9.82;;;8.82;;
38379;SDS011;38377;47.418;18.882;2022-08-30T01:47:20;12.73;;;9.13;;
38379;SDS011;38377;47.418;18.882;2022-08-30T01:49:46;9.80;;;8.27;;
38379;SDS011;38377;47.418;18.882;2022-08-30T01:52:13;10.80;;;8.65;;
38379;SDS011;38377;47.418;18.882;2022-08-30T01:54:40;10.05;;;9.05;;
38379;SDS011;38377;47.418;18.882;2022-08-30T01:57:09;10.20;;;9.20;;
38379;SDS011;38377;47.418;18.882;2022-08-30T01:59:37;9.88;;;8.80;;
38379;SDS011;38377;47.418;18.882;2022-08-30T02:02:05;9.68;;;8.68;;
38379;SDS011;38377;47.418;18.882;2022-08-30T02:04:31;9.50;;;8.48;;
38379;SDS011;38377;47.418;18.882;2022-08-30T02:06:57;9.63;;;8.35;;
38379;SDS011;38377;47.418;18.882;2022-08-30T02:09:22;10.60;;;8.50;;
38379;SDS011;38377;47.418;18.882;2022-08-30T02:11:48;10.15;;;9.05;;
38379;SDS011;38377;47.418;18.882;2022-08-30T02:14:14;10.85;;;8.50;;
38379;SDS011;38377;47.418;18.882;2022-08-30T02:16:40;9.57;;;8.50;;
38379;SDS011;38377;47.418;18.882;2022-08-30T02:19:06;10.82;;;9.70;;
38379;SDS011;38377;47.418;18.882;2022-08-30T02:21:33;9.75;;;8.75;;
38379;SDS011;38377;47.418;18.882;2022-08-30T02:23:58;12.40;;;9.38;;
38379;SDS011;38377;47.418;18.882;2022-08-30T02:26:25;13.18;;;9.60;;
38379;SDS011;38377;47.418;18.882;2022-08-30T02:28:51;9.93;;;8.95;;
38379;SDS011;38377;47.418;18.882;2022-08-30T02:31:18;12.02;;;10.48;;
38379;SDS011;38377;47.418;18.882;2022-08-30T02:33:45;10.82;;;9.63;;
38379;SDS011;38377;47.418;18.882;2022-08-30T02:36:12;11.05;;;10.05;;
38379;SDS011;38377;47.418;18.882;2022-08-30T02:38:39;11.02;;;9.15;;
38379;SDS011;38377;47.418;18.882;2022-08-30T02:41:05;12.80;;;9.77;;
38379;SDS011;38377;47.418;18.882;2022-08-30T02:43:31;9.93;;;8.93;;
38379;SDS011;38377;47.418;18.882;2022-08-30T02:45:56;11.18;;;9.40;;
38379;SDS011;38377;47.418;18.882;2022-08-30T02:48:22;11.90;;;10.15;;
38379;SDS011;38377;47.418;18.882;2022-08-30T02:50:49;10.57;;;9.57;;
38379;SDS011;38377;47.418;18.882;2022-08-30T02:53:16;10.52;;;9.43;;
38379;SDS011;38377;47.418;18.882;2022-08-30T02:55:42;12.20;;;10.73;;
38379;SDS011;38377;47.418;18.882;2022-08-30T02:58:09;12.65;;;10.18;;
38379;SDS011;38377;47.418;18.882;2022-08-30T03:00:35;11.27;;;9.90;;
38379;SDS011;38377;47.418;18.882;2022-08-30T03:03:01;11.40;;;9.50;;
38379;SDS011;38377;47.418;18.882;2022-08-30T03:05:28;11.48;;;10.27;;
38379;SDS011;38377;47.418;18.882;2022-08-30T03:07:54;11.25;;;10.02;;
38379;SDS011;38377;47.418;18.882;2022-08-30T03:10:20;11.25;;;9.98;;
38379;SDS011;38377;47.418;18.882;2022-08-30T03:12:46;11.40;;;10.20;;
38379;SDS011;38377;47.418;18.882;2022-08-30T03:15:12;12.30;;;10.80;;
38379;SDS011;38377;47.418;18.882;2022-08-30T03:17:39;12.00;;;10.38;;
38379;SDS011;38377;47.418;18.882;2022-08-30T03:20:05;18.85;;;11.10;;
38379;SDS011;38377;47.418;18.882;2022-08-30T03:22:32;12.95;;;11.55;;
38379;SDS011;38377;47.418;18.882;2022-08-30T03:24:57;11.77;;;10.57;;
38379;SDS011;38377;47.418;18.882;2022-08-30T03:27:25;11.95;;;10.23;;
38379;SDS011;38377;47.418;18.882;2022-08-30T03:29:52;13.80;;;10.95;;
38379;SDS011;38377;47.418;18.882;2022-08-30T03:32:18;13.82;;;11.93;;
38379;SDS011;38377;47.418;18.882;2022-08-30T03:34:44;13.10;;;11.65;;
38379;SDS011;38377;47.418;18.882;2022-08-30T03:37:10;14.95;;;12.32;;
38379;SDS011;38377;47.418;18.882;2022-08-30T03:39:36;12.20;;;10.93;;
38379;SDS011;38377;47.418;18.882;2022-08-30T03:42:02;12.82;;;11.30;;
38379;SDS011;38377;47.418;18.882;2022-08-30T03:44:27;12.93;;;11.18;;
38379;SDS011;38377;47.418;18.882;2022-08-30T03:46:53;14.52;;;11.70;;
38379;SDS011;38377;47.418;18.882;2022-08-30T03:49:19;15.52;;;11.23;;
38379;SDS011;38377;47.418;18.882;2022-08-30T03:51:45;12.98;;;11.20;;
38379;SDS011;38377;47.418;18.882;2022-08-30T03:54:11;13.27;;;11.20;;
38379;SDS011;38377;47.418;18.882;2022-08-30T03:56:37;13.63;;;12.25;;
38379;SDS011;38377;47.418;18.882;2022-08-30T03:59:04;11.93;;;10.65;;
38379;SDS011;38377;47.418;18.882;2022-08-30T04:01:30;12.98;;;11.60;;
38379;SDS011;38377;47.418;18.882;2022-08-30T04:03:56;12.82;;;11.38;;
38379;SDS011;38377;47.418;18.882;2022-08-30T04:06:21;12.15;;;10.68;;
38379;SDS011;38377;47.418;18.882;2022-08-30T04:08:48;12.30;;;9.82;;
38379;SDS011;38377;47.418;18.882;2022-08-30T04:11:13;13.00;;;11.15;;
38379;SDS011;38377;47.418;18.882;2022-08-30T04:13:40;12.95;;;11.60;;
38379;SDS011;38377;47.418;18.882;2022-08-30T04:16:06;12.98;;;10.93;;
38379;SDS011;38377;47.418;18.882;2022-08-30T04:18:32;13.52;;;10.73;;
38379;SDS011;38377;47.418;18.882;2022-08-30T04:20:59;12.32;;;11.02;;
38379;SDS011;38377;47.418;18.882;2022-08-30T04:23:26;13.00;;;11.27;;
38379;SDS011;38377;47.418;18.882;2022-08-30T04:25:52;12.90;;;10.00;;
38379;SDS011;38377;47.418;18.882;2022-08-30T04:28:18;11.32;;;10.18;;
38379;SDS011;38377;47.418;18.882;2022-08-30T04:30:45;13.10;;;8.75;;
38379;SDS011;38377;47.418;18.882;2022-08-30T04:33:11;17.63;;;9.40;;
38379;SDS011;38377;47.418;18.882;2022-08-30T04:35:41;11.68;;;9.70;;
38379;SDS011;38377;47.418;18.882;2022-08-30T04:38:09;12.45;;;9.75;;
38379;SDS011;38377;47.418;18.882;2022-08-30T04:40:37;10.82;;;8.65;;
38379;SDS011;38377;47.418;18.882;2022-08-30T04:43:05;11.18;;;8.90;;
38379;SDS011;38377;47.418;18.882;2022-08-30T04:45:31;10.02;;;8.90;;
38379;SDS011;38377;47.418;18.882;2022-08-30T04:47:56;9.35;;;8.35;;
38379;SDS011;38377;47.418;18.882;2022-08-30T04:50:22;10.50;;;8.70;;
38379;SDS011;38377;47.418;18.882;2022-08-30T04:52:48;9.80;;;8.20;;
38379;SDS011;38377;47.418;18.882;2022-08-30T04:55:14;9.05;;;8.07;;
38379;SDS011;38377;47.418;18.882;2022-08-30T04:57:40;9.05;;;7.82;;
38379;SDS011;38377;47.418;18.882;2022-08-30T05:00:08;10.25;;;8.23;;
38379;SDS011;38377;47.418;18.882;2022-08-30T05:02:36;9.30;;;8.27;;
38379;SDS011;38377;47.418;18.882;2022-08-30T05:05:03;14.05;;;8.25;;
38379;SDS011;38377;47.418;18.882;2022-08-30T05:07:47;8.75;;;7.47;;
38379;SDS011;38377;47.418;18.882;2022-08-30T05:10:13;8.75;;;7.38;;
38379;SDS011;38377;47.418;18.882;2022-08-30T05:12:39;8.90;;;7.43;;
38379;SDS011;38377;47.418;18.882;2022-08-30T05:15:05;9.77;;;7.88;;
38379;SDS011;38377;47.418;18.882;2022-08-30T05:17:31;10.98;;;7.47;;
38379;SDS011;38377;47.418;18.882;2022-08-30T05:19:59;8.45;;;7.13;;
38379;SDS011;38377;47.418;18.882;2022-08-30T05:22:26;10.88;;;7.78;;
38379;SDS011;38377;47.418;18.882;2022-08-30T05:24:52;9.55;;;7.03;;
38379;SDS011;38377;47.418;18.882;2022-08-30T05:27:17;8.27;;;6.70;;
38379;SDS011;38377;47.418;18.882;2022-08-30T05:29:43;10.32;;;7.75;;
38379;SDS011;38377;47.418;18.882;2022-08-30T05:32:09;9.57;;;7.13;;
38379;SDS011;38377;47.418;18.882;2022-08-30T05:34:35;9.57;;;7.43;;
38379;SDS011;38377;47.418;18.882;2022-08-30T05:37:00;9.02;;;6.80;;
38379;SDS011;38377;47.418;18.882;2022-08-30T05:39:27;8.65;;;7.18;;
38379;SDS011;38377;47.418;18.882;2022-08-30T05:41:57;8.45;;;7.05;;
38379;SDS011;38377;47.418;18.882;2022-08-30T05:44:23;8.15;;;7.13;;
38379;SDS011;38377;47.418;18.882;2022-08-30T05:46:49;14.63;;;7.10;;
38379;SDS011;38377;47.418;18.882;2022-08-30T05:49:15;9.73;;;6.53;;
38379;SDS011;38377;47.418;18.882;2022-08-30T05:51:41;9.82;;;6.85;;
38379;SDS011;38377;47.418;18.882;2022-08-30T05:54:07;10.13;;;6.75;;
38379;SDS011;38377;47.418;18.882;2022-08-30T05:56:35;8.88;;;6.32;;
38379;SDS011;38377;47.418;18.882;2022-08-30T05:59:03;10.02;;;7.05;;
38379;SDS011;38377;47.418;18.882;2022-08-30T06:01:34;6.85;;;6.15;;
38379;SDS011;38377;47.418;18.882;2022-08-30T06:04:09;9.32;;;6.30;;
38379;SDS011;38377;47.418;18.882;2022-08-30T06:06:37;9.93;;;7.70;;
38379;SDS011;38377;47.418;18.882;2022-08-30T06:09:04;6.95;;;6.22;;
38379;SDS011;38377;47.418;18.882;2022-08-30T06:11:31;8.98;;;6.72;;
38379;SDS011;38377;47.418;18.882;2022-08-30T06:13:57;9.82;;;6.28;;
38379;SDS011;38377;47.418;18.882;2022-08-30T06:16:24;10.43;;;6.28;;
38379;SDS011;38377;47.418;18.882;2022-08-30T06:18:51;7.75;;;4.80;;
38379;SDS011;38377;47.418;18.882;2022-08-30T06:21:22;16.38;;;6.72;;
38379;SDS011;38377;47.418;18.882;2022-08-30T06:23:50;13.98;;;5.82;;
38379;SDS011;38377;47.418;18.882;2022-08-30T06:26:16;9.30;;;5.65;;
38379;SDS011;38377;47.418;18.882;2022-08-30T06:28:42;9.50;;;6.15;;
38379;SDS011;38377;47.418;18.882;2022-08-30T06:31:10;7.78;;;5.97;;
38379;SDS011;38377;47.418;18.882;2022-08-30T06:33:37;6.97;;;5.32;;
38379;SDS011;38377;47.418;18.882;2022-08-30T06:38:30;9.18;;;5.95;;
38379;SDS011;38377;47.418;18.882;2022-08-30T06:40:56;7.15;;;5.53;;
38379;SDS011;38377;47.418;18.882;2022-08-30T06:43:22;7.50;;;5.25;;
38379;SDS011;38377;47.418;18.882;2022-08-30T06:45:48;7.18;;;5.43;;
38379;SDS011;38377;47.418;18.882;2022-08-30T06:48:14;6.43;;;5.22;;
38379;SDS011;38377;47.418;18.882;2022-08-30T06:50:40;8.05;;;5.50;;
38379;SDS011;38377;47.418;18.882;2022-08-30T06:53:06;8.85;;;5.20;;
38379;SDS011;38377;47.418;18.882;2022-08-30T06:55:32;6.40;;;5.80;;
38379;SDS011;38377;47.418;18.882;2022-08-30T06:57:59;6.35;;;5.07;;
38379;SDS011;38377;47.418;18.882;2022-08-30T07:00:26;5.97;;;4.65;;
38379;SDS011;38377;47.418;18.882;2022-08-30T07:02:53;6.72;;;5.63;;
38379;SDS011;38377;47.418;18.882;2022-08-30T07:05:19;5.82;;;5.30;;
38379;SDS011;38377;47.418;18.882;2022-08-30T07:07:49;7.20;;;5.75;;
38379;SDS011;38377;47.418;18.882;2022-08-30T07:10:17;7.32;;;5.10;;
38379;SDS011;38377;47.418;18.882;2022-08-30T07:12:43;7.43;;;5.97;;
38379;SDS011;38377;47.418;18.882;2022-08-30T07:15:09;5.95;;;5.25;;
38379;SDS011;38377;47.418;18.882;2022-08-30T07:17:36;8.90;;;5.90;;
38379;SDS011;38377;47.418;18.882;2022-08-30T07:20:20;6.60;;;5.28;;
38379;SDS011;38377;47.418;18.882;2022-08-30T07:22:46;6.13;;;5.53;;
38379;SDS011;38377;47.418;18.882;2022-08-30T07:25:12;9.45;;;6.32;;
38379;SDS011;38377;47.418;18.882;2022-08-30T07:27:39;10.88;;;5.80;;
38379;SDS011;38377;47.418;18.882;2022-08-30T07:30:06;6.72;;;5.65;;
38379;SDS011;38377;47.418;18.882;2022-08-30T07:32:33;6.72;;;5.10;;
38379;SDS011;38377;47.418;18.882;2022-08-30T07:34:59;9.50;;;5.57;;
38379;SDS011;38377;47.418;18.882;2022-08-30T07:37:24;6.78;;;5.65;;
38379;SDS011;38377;47.418;18.882;2022-08-30T07:39:50;7.25;;;5.50;;
38379;SDS011;38377;47.418;18.882;2022-08-30T07:42:16;8.88;;;4.95;;
38379;SDS011;38377;47.418;18.882;2022-08-30T07:44:42;7.82;;;5.20;;
38379;SDS011;38377;47.418;18.882;2022-08-30T07:47:07;7.20;;;5.03;;
38379;SDS011;38377;47.418;18.882;2022-08-30T07:49:35;6.97;;;5.40;;
38379;SDS011;38377;47.418;18.882;2022-08-30T07:52:04;8.20;;;5.20;;
38379;SDS011;38377;47.418;18.882;2022-08-30T07:54:32;8.43;;;5.25;;
38379;SDS011;38377;47.418;18.882;2022-08-30T07:56:58;6.40;;;5.45;;
38379;SDS011;38377;47.418;18.882;2022-08-30T07:59:24;7.65;;;5.28;;
38379;SDS011;38377;47.418;18.882;2022-08-30T08:01:50;8.80;;;5.55;;
38379;SDS011;38377;47.418;18.882;2022-08-30T08:04:15;6.18;;;4.63;;
38379;SDS011;38377;47.418;18.882;2022-08-30T08:06:41;6.68;;;4.93;;
38379;SDS011;38377;47.418;18.882;2022-08-30T08:09:09;6.05;;;5.10;;
38379;SDS011;38377;47.418;18.882;2022-08-30T08:11:34;7.97;;;4.82;;
38379;SDS011;38377;47.418;18.882;2022-08-30T08:14:01;7.47;;;4.72;;
38379;SDS011;38377;47.418;18.882;2022-08-30T08:16:29;5.15;;;4.60;;
38379;SDS011;38377;47.418;18.882;2022-08-30T08:18:56;7.47;;;4.88;;
38379;SDS011;38377;47.418;18.882;2022-08-30T08:21:22;5.88;;;4.90;;
38379;SDS011;38377;47.418;18.882;2022-08-30T08:23:49;6.18;;;5.10;;
38379;SDS011;38377;47.418;18.882;2022-08-30T08:26:15;6.07;;;4.90;;
38379;SDS011;38377;47.418;18.882;2022-08-30T08:28:42;6.75;;;5.10;;
38379;SDS011;38377;47.418;18.882;2022-08-30T08:31:15;8.45;;;5.15;;
38379;SDS011;38377;47.418;18.882;2022-08-30T08:33:42;5.60;;;5.00;;
38379;SDS011;38377;47.418;18.882;2022-08-30T08:36:08;5.40;;;4.60;;
38379;SDS011;38377;47.418;18.882;2022-08-30T08:38:34;6.63;;;4.78;;
38379;SDS011;38377;47.418;18.882;2022-08-30T08:43:35;10.77;;;4.90;;
38379;SDS011;38377;47.418;18.882;2022-08-30T08:46:23;7.22;;;4.95;;
38379;SDS011;38377;47.418;18.882;2022-08-30T08:48:56;7.10;;;4.38;;
38379;SDS011;38377;47.418;18.882;2022-08-30T08:51:26;6.55;;;4.75;;
38379;SDS011;38377;47.418;18.882;2022-08-30T08:54:15;5.82;;;4.18;;
38379;SDS011;38377;47.418;18.882;2022-08-30T08:56:43;7.90;;;4.63;;
38379;SDS011;38377;47.418;18.882;2022-08-30T08:59:10;6.60;;;4.57;;
38379;SDS011;38377;47.418;18.882;2022-08-30T09:01:36;8.50;;;4.93;;
38379;SDS011;38377;47.418;18.882;2022-08-30T09:04:36;6.07;;;4.70;;
38379;SDS011;38377;47.418;18.882;2022-08-30T09:09:34;10.05;;;5.28;;
38379;SDS011;38377;47.418;18.882;2022-08-30T09:12:02;7.55;;;5.20;;
38379;SDS011;38377;47.418;18.882;2022-08-30T09:14:42;5.80;;;5.20;;
38379;SDS011;38377;47.418;18.882;2022-08-30T09:17:17;5.75;;;4.95;;
38379;SDS011;38377;47.418;18.882;2022-08-30T09:22:24;5.35;;;4.80;;
38379;SDS011;38377;47.418;18.882;2022-08-30T09:32:37;9.40;;;5.85;;
38379;SDS011;38377;47.418;18.882;2022-08-30T09:38:41;8.70;;;4.60;;
38379;SDS011;38377;47.418;18.882;2022-08-30T09:40:57;7.38;;;6.38;;
38379;SDS011;38377;47.418;18.882;2022-08-30T09:43:32;7.85;;;6.00;;
38379;SDS011;38377;47.418;18.882;2022-08-30T09:48:32;9.32;;;5.55;;
38379;SDS011;38377;47.418;18.882;2022-08-30T09:53:42;9.30;;;5.18;;
38379;SDS011;38377;47.418;18.882;2022-08-30T10:04:48;6.18;;;5.57;;
38379;SDS011;38377;47.418;18.882;2022-08-30T10:10:33;6.82;;;5.80;;
38379;SDS011;38377;47.418;18.882;2022-08-30T10:15:47;8.18;;;5.35;;
38379;SDS011;38377;47.418;18.882;2022-08-30T10:18:20;7.10;;;5.55;;
38379;SDS011;38377;47.418;18.882;2022-08-30T10:21:12;7.75;;;5.85;;
38379;SDS011;38377;47.418;18.882;2022-08-30T10:23:50;5.80;;;5.25;;
38379;SDS011;38377;47.418;18.882;2022-08-30T10:26:27;8.95;;;5.80;;
38379;SDS011;38377;47.418;18.882;2022-08-30T10:29:05;6.88;;;5.93;;
38379;SDS011;38377;47.418;18.882;2022-08-30T10:34:19;7.95;;;5.38;;
38379;SDS011;38377;47.418;18.882;2022-08-30T10:36:55;6.22;;;5.10;;
38379;SDS011;38377;47.418;18.882;2022-08-30T10:39:27;5.82;;;5.13;;
38379;SDS011;38377;47.418;18.882;2022-08-30T10:42:11;5.45;;;4.95;;
38379;SDS011;38377;47.418;18.882;2022-08-30T10:50:03;6.00;;;5.07;;
38379;SDS011;38377;47.418;18.882;2022-08-30T10:52:38;7.88;;;5.88;;
38379;SDS011;38377;47.418;18.882;2022-08-30T10:55:10;6.75;;;5.50;;
38379;SDS011;38377;47.418;18.882;2022-08-30T10:57:42;7.63;;;5.47;;
38379;SDS011;38377;47.418;18.882;2022-08-30T11:02:50;5.53;;;4.95;;
38379;SDS011;38377;47.418;18.882;2022-08-30T11:14:02;5.32;;;4.88;;
38379;SDS011;38377;47.418;18.882;2022-08-30T11:16:33;6.63;;;4.75;;
38379;SDS011;38377;47.418;18.882;2022-08-30T11:22:13;5.13;;;4.28;;
38379;SDS011;38377;47.418;18.882;2022-08-30T11:25:02;5.30;;;4.78;;
38379;SDS011;38377;47.418;18.882;2022-08-30T11:27:42;5.47;;;4.38;;
38379;SDS011;38377;47.418;18.882;2022-08-30T11:32:56;13.73;;;5.38;;
38379;SDS011;38377;47.418;18.882;2022-08-30T11:38:12;5.10;;;4.65;;
38379;SDS011;38377;47.418;18.882;2022-08-30T11:40:49;5.93;;;5.30;;
38379;SDS011;38377;47.418;18.882;2022-08-30T11:51:22;12.60;;;5.15;;
38379;SDS011;38377;47.418;18.882;2022-08-30T12:02:37;10.90;;;4.80;;
38379;SDS011;38377;47.418;18.882;2022-08-30T12:08:52;5.35;;;4.85;;
38379;SDS011;38377;47.418;18.882;2022-08-30T12:10:54;5.22;;;4.32;;
38379;SDS011;38377;47.418;18.882;2022-08-30T12:16:02;4.90;;;4.43;;
38379;SDS011;38377;47.418;18.882;2022-08-30T12:18:36;4.78;;;4.38;;
38379;SDS011;38377;47.418;18.882;2022-08-30T12:21:52;4.55;;;4.15;;
38379;SDS011;38377;47.418;18.882;2022-08-30T12:29:06;5.10;;;4.60;;
38379;SDS011;38377;47.418;18.882;2022-08-30T12:31:40;4.93;;;4.53;;
38379;SDS011;38377;47.418;18.882;2022-08-30T12:34:18;9.07;;;4.35;;
38379;SDS011;38377;47.418;18.882;2022-08-30T12:37:01;6.47;;;4.55;;
38379;SDS011;38377;47.418;18.882;2022-08-30T12:39:33;4.47;;;4.07;;
38379;SDS011;38377;47.418;18.882;2022-08-30T12:42:49;5.10;;;4.60;;
38379;SDS011;38377;47.418;18.882;2022-08-30T12:47:29;4.85;;;4.45;;
38379;SDS011;38377;47.418;18.882;2022-08-30T12:49:58;6.40;;;4.30;;
38379;SDS011;38377;47.418;18.882;2022-08-30T12:54:50;10.10;;;4.97;;
38379;SDS011;38377;47.418;18.882;2022-08-30T12:57:35;5.78;;;4.20;;
38379;SDS011;38377;47.418;18.882;2022-08-30T13:01:09;6.95;;;4.63;;
38379;SDS011;38377;47.418;18.882;2022-08-30T13:03:00;6.05;;;4.32;;
38379;SDS011;38377;47.418;18.882;2022-08-30T13:11:05;5.20;;;4.70;;
38379;SDS011;38377;47.418;18.882;2022-08-30T13:13:39;5.28;;;4.50;;
38379;SDS011;38377;47.418;18.882;2022-08-30T13:16:08;5.95;;;4.65;;
38379;SDS011;38377;47.418;18.882;2022-08-30T13:18:46;4.68;;;4.22;;
38379;SDS011;38377;47.418;18.882;2022-08-30T13:23:49;5.18;;;4.15;;
38379;SDS011;38377;47.418;18.882;2022-08-30T13:26:16;7.10;;;4.50;;
38379;SDS011;38377;47.418;18.882;2022-08-30T13:28:44;4.57;;;3.63;;
38379;SDS011;38377;47.418;18.882;2022-08-30T13:31:12;4.65;;;3.78;;
38379;SDS011;38377;47.418;18.882;2022-08-30T13:33:38;6.38;;;3.85;;
38379;SDS011;38377;47.418;18.882;2022-08-30T13:36:04;5.38;;;4.22;;
38379;SDS011;38377;47.418;18.882;2022-08-30T13:38:29;4.47;;;4.07;;
38379;SDS011;38377;47.418;18.882;2022-08-30T13:40:55;4.13;;;3.72;;
38379;SDS011;38377;47.418;18.882;2022-08-30T13:43:21;5.57;;;3.75;;
38379;SDS011;38377;47.418;18.882;2022-08-30T13:45:46;5.25;;;3.75;;
38379;SDS011;38377;47.418;18.882;2022-08-30T13:48:12;4.00;;;3.65;;
38379;SDS011;38377;47.418;18.882;2022-08-30T13:50:39;7.43;;;4.28;;
38379;SDS011;38377;47.418;18.882;2022-08-30T13:53:06;5.95;;;3.80;;
38379;SDS011;38377;47.418;18.882;2022-08-30T13:55:33;4.45;;;4.00;;
38379;SDS011;38377;47.418;18.882;2022-08-30T13:58:00;4.28;;;3.88;;
38379;SDS011;38377;47.418;18.882;2022-08-30T14:00:26;5.85;;;3.63;;
38379;SDS011;38377;47.418;18.882;2022-08-30T14:02:52;6.57;;;4.00;;
38379;SDS011;38377;47.418;18.882;2022-08-30T14:05:20;4.45;;;3.78;;
38379;SDS011;38377;47.418;18.882;2022-08-30T14:07:50;4.60;;;3.80;;
38379;SDS011;38377;47.418;18.882;2022-08-30T14:10:16;4.25;;;3.83;;
38379;SDS011;38377;47.418;18.882;2022-08-30T14:12:43;4.22;;;3.85;;
38379;SDS011;38377;47.418;18.882;2022-08-30T14:15:09;4.88;;;3.90;;
38379;SDS011;38377;47.418;18.882;2022-08-30T14:17:35;3.70;;;3.40;;
38379;SDS011;38377;47.418;18.882;2022-08-30T14:20:00;4.85;;;3.42;;
38379;SDS011;38377;47.418;18.882;2022-08-30T14:22:26;5.30;;;3.78;;
38379;SDS011;38377;47.418;18.882;2022-08-30T14:24:52;4.63;;;3.60;;
38379;SDS011;38377;47.418;18.882;2022-08-30T14:27:18;4.35;;;3.50;;
38379;SDS011;38377;47.418;18.882;2022-08-30T14:29:44;4.15;;;3.50;;
38379;SDS011;38377;47.418;18.882;2022-08-30T14:32:10;4.45;;;3.78;;
38379;SDS011;38377;47.418;18.882;2022-08-30T14:34:36;4.57;;;3.95;;
38379;SDS011;38377;47.418;18.882;2022-08-30T14:37:01;4.85;;;3.70;;
38379;SDS011;38377;47.418;18.882;2022-08-30T14:39:30;8.38;;;4.03;;
38379;SDS011;38377;47.418;18.882;2022-08-30T14:41:56;5.15;;;4.00;;
38379;SDS011;38377;47.418;18.882;2022-08-30T14:44:22;5.60;;;4.35;;
38379;SDS011;38377;47.418;18.882;2022-08-30T14:46:49;4.57;;;3.70;;
38379;SDS011;38377;47.418;18.882;2022-08-30T14:49:15;8.25;;;4.07;;
38379;SDS011;38377;47.418;18.882;2022-08-30T14:51:42;6.10;;;4.00;;
38379;SDS011;38377;47.418;18.882;2022-08-30T14:54:10;5.55;;;3.80;;
38379;SDS011;38377;47.418;18.882;2022-08-30T14:56:37;4.68;;;4.22;;
38379;SDS011;38377;47.418;18.882;2022-08-30T14:59:03;6.63;;;4.55;;
38379;SDS011;38377;47.418;18.882;2022-08-30T15:01:30;6.82;;;4.00;;
38379;SDS011;38377;47.418;18.882;2022-08-30T15:03:56;4.20;;;3.80;;
38379;SDS011;38377;47.418;18.882;2022-08-30T15:06:22;4.38;;;3.53;;
38379;SDS011;38377;47.418;18.882;2022-08-30T15:08:48;6.30;;;3.40;;
38379;SDS011;38377;47.418;18.882;2022-08-30T15:11:16;4.88;;;4.20;;
38379;SDS011;38377;47.418;18.882;2022-08-30T15:13:43;7.35;;;4.75;;
38379;SDS011;38377;47.418;18.882;2022-08-30T15:16:13;5.18;;;3.90;;
38379;SDS011;38377;47.418;18.882;2022-08-30T15:18:44;8.50;;;4.45;;
38379;SDS011;38377;47.418;18.882;2022-08-30T15:21:10;6.72;;;3.88;;
38379;SDS011;38377;47.418;18.882;2022-08-30T15:23:36;12.20;;;4.55;;
38379;SDS011;38377;47.418;18.882;2022-08-30T15:26:03;6.20;;;4.13;;
38379;SDS011;38377;47.418;18.882;2022-08-30T15:28:29;6.50;;;4.63;;
38379;SDS011;38377;47.418;18.882;2022-08-30T15:30:54;5.82;;;4.25;;
38379;SDS011;38377;47.418;18.882;2022-08-30T15:33:21;4.80;;;3.75;;
38379;SDS011;38377;47.418;18.882;2022-08-30T15:35:47;8.50;;;4.50;;
38379;SDS011;38377;47.418;18.882;2022-08-30T15:38:13;12.35;;;4.63;;
38379;SDS011;38377;47.418;18.882;2022-08-30T15:40:39;6.40;;;4.30;;
38379;SDS011;38377;47.418;18.882;2022-08-30T15:43:05;4.35;;;3.92;;
38379;SDS011;38377;47.418;18.882;2022-08-30T15:45:31;5.40;;;4.38;;
38379;SDS011;38377;47.418;18.882;2022-08-30T15:47:59;4.45;;;4.05;;
38379;SDS011;38377;47.418;18.882;2022-08-30T15:50:26;5.45;;;4.50;;
38379;SDS011;38377;47.418;18.882;2022-08-30T15:52:52;7.63;;;6.93;;
38379;SDS011;38377;47.418;18.882;2022-08-30T15:55:18;9.23;;;6.25;;
38379;SDS011;38377;47.418;18.882;2022-08-30T15:57:43;4.22;;;3.85;;
38379;SDS011;38377;47.418;18.882;2022-08-30T16:00:09;14.23;;;11.77;;
38379;SDS011;38377;47.418;18.882;2022-08-30T16:02:36;5.75;;;4.57;;
38379;SDS011;38377;47.418;18.882;2022-08-30T16:05:02;7.50;;;4.65;;
38379;SDS011;38377;47.418;18.882;2022-08-30T16:07:28;4.95;;;3.67;;
38379;SDS011;38377;47.418;18.882;2022-08-30T16:09:54;8.02;;;4.70;;
38379;SDS011;38377;47.418;18.882;2022-08-30T16:12:20;5.50;;;4.82;;
38379;SDS011;38377;47.418;18.882;2022-08-30T16:14:46;4.18;;;3.75;;
38379;SDS011;38377;47.418;18.882;2022-08-30T16:17:11;4.82;;;4.32;;
38379;SDS011;38377;47.418;18.882;2022-08-30T16:19:37;7.25;;;3.83;;
38379;SDS011;38377;47.418;18.882;2022-08-30T16:22:03;4.55;;;4.15;;
38379;SDS011;38377;47.418;18.882;2022-08-30T16:24:29;5.25;;;3.85;;
38379;SDS011;38377;47.418;18.882;2022-08-30T16:26:55;4.20;;;3.80;;
38379;SDS011;38377;47.418;18.882;2022-08-30T16:29:21;7.93;;;4.00;;